sensor_id;sensor_type;location;lat;lon;timestamp;temperature;humidity
4390;DHT22;2209;48.982;8.406;2022-08-24T00:00:57;26.50;59.70
4390;DHT22;2209;48.982;8.406;2022-08-24T00:03:19;26.50;59.90
4390;DHT22;2209;48.982;8.406;2022-08-24T00:05:41;26.50;59.90
4390;DHT22;2209;48.982;8.406;2022-08-24T00:08:04;26.50;60.00
4390;DHT22;2209;48.982;8.406;2022-08-24T00:10:26;26.50;60.00
4390;DHT22;2209;48.982;8.406;2022-08-24T00:12:49;26.40;59.90
4390;DHT22;2209;48.982;8.406;2022-08-24T00:15:13;26.40;60.10
4390;DHT22;2209;48.982;8.406;2022-08-24T00:17:36;26.40;60.30
4390;DHT22;2209;48.982;8.406;2022-08-24T00:19:59;26.30;60.30
4390;DHT22;2209;48.982;8.406;2022-08-24T00:22:22;26.30;60.50
4390;DHT22;2209;48.982;8.406;2022-08-24T00:24:44;26.30;60.60
4390;DHT22;2209;48.982;8.406;2022-08-24T00:27:07;26.30;60.70
4390;DHT22;2209;48.982;8.406;2022-08-24T00:29:29;26.30;60.80
4390;DHT22;2209;48.982;8.406;2022-08-24T00:31:53;26.30;60.80
4390;DHT22;2209;48.982;8.406;2022-08-24T00:34:16;26.30;60.90
4390;DHT22;2209;48.982;8.406;2022-08-24T00:36:38;26.20;61.00
4390;DHT22;2209;48.982;8.406;2022-08-24T00:39:01;26.20;61.10
4390;DHT22;2209;48.982;8.406;2022-08-24T00:41:24;26.20;61.20
4390;DHT22;2209;48.982;8.406;2022-08-24T00:43:53;26.10;61.10
4390;DHT22;2209;48.982;8.406;2022-08-24T00:46:20;26.10;61.20
4390;DHT22;2209;48.982;8.406;2022-08-24T00:48:48;26.10;61.20
4390;DHT22;2209;48.982;8.406;2022-08-24T00:51:17;26.10;61.10
4390;DHT22;2209;48.982;8.406;2022-08-24T00:53:43;26.10;61.20
4390;DHT22;2209;48.982;8.406;2022-08-24T00:56:10;26.00;61.10
4390;DHT22;2209;48.982;8.406;2022-08-24T00:58:34;26.00;61.30
4390;DHT22;2209;48.982;8.406;2022-08-24T01:00:59;26.00;61.30
4390;DHT22;2209;48.982;8.406;2022-08-24T01:03:24;25.90;61.20
4390;DHT22;2209;48.982;8.406;2022-08-24T01:05:49;25.90;61.50
4390;DHT22;2209;48.982;8.406;2022-08-24T01:08:12;25.90;61.50
4390;DHT22;2209;48.982;8.406;2022-08-24T01:10:39;25.90;61.60
4390;DHT22;2209;48.982;8.406;2022-08-24T01:13:05;25.80;61.60
4390;DHT22;2209;48.982;8.406;2022-08-24T01:15:29;25.80;61.50
4390;DHT22;2209;48.982;8.406;2022-08-24T01:17:52;25.80;61.50
4390;DHT22;2209;48.982;8.406;2022-08-24T01:20:31;25.80;61.50
4390;DHT22;2209;48.982;8.406;2022-08-24T01:23:03;25.70;61.50
4390;DHT22;2209;48.982;8.406;2022-08-24T01:25:29;25.70;61.60
4390;DHT22;2209;48.982;8.406;2022-08-24T01:27:53;25.70;61.60
4390;DHT22;2209;48.982;8.406;2022-08-24T01:30:17;25.70;62.20
4390;DHT22;2209;48.982;8.406;2022-08-24T01:32:40;25.70;61.50
4390;DHT22;2209;48.982;8.406;2022-08-24T01:35:03;25.70;61.50
4390;DHT22;2209;48.982;8.406;2022-08-24T01:37:25;25.70;61.50
4390;DHT22;2209;48.982;8.406;2022-08-24T01:39:49;25.70;61.20
4390;DHT22;2209;48.982;8.406;2022-08-24T01:42:15;25.70;60.60
4390;DHT22;2209;48.982;8.406;2022-08-24T01:44:39;25.60;60.30
4390;DHT22;2209;48.982;8.406;2022-08-24T01:47:02;25.60;60.30
4390;DHT22;2209;48.982;8.406;2022-08-24T01:49:27;25.60;60.40
4390;DHT22;2209;48.982;8.406;2022-08-24T01:51:50;25.70;61.10
4390;DHT22;2209;48.982;8.406;2022-08-24T01:54:13;25.60;61.30
4390;DHT22;2209;48.982;8.406;2022-08-24T01:56:35;25.60;61.00
4390;DHT22;2209;48.982;8.406;2022-08-24T01:58:59;25.60;60.60
4390;DHT22;2209;48.982;8.406;2022-08-24T02:01:22;25.60;60.30
4390;DHT22;2209;48.982;8.406;2022-08-24T02:03:45;25.60;60.30
4390;DHT22;2209;48.982;8.406;2022-08-24T02:06:07;25.60;60.40
4390;DHT22;2209;48.982;8.406;2022-08-24T02:08:31;25.60;60.80
4390;DHT22;2209;48.982;8.406;2022-08-24T02:10:56;25.60;60.70
4390;DHT22;2209;48.982;8.406;2022-08-24T02:13:18;25.60;60.50
4390;DHT22;2209;48.982;8.406;2022-08-24T02:15:42;25.50;60.50
4390;DHT22;2209;48.982;8.406;2022-08-24T02:18:04;25.50;61.20
4390;DHT22;2209;48.982;8.406;2022-08-24T02:20:27;25.50;61.90
4390;DHT22;2209;48.982;8.406;2022-08-24T02:22:50;25.50;62.20
4390;DHT22;2209;48.982;8.406;2022-08-24T02:25:13;25.40;62.30
4390;DHT22;2209;48.982;8.406;2022-08-24T02:27:35;25.40;62.40
4390;DHT22;2209;48.982;8.406;2022-08-24T02:29:57;25.30;62.10
4390;DHT22;2209;48.982;8.406;2022-08-24T02:32:21;25.30;61.70
4390;DHT22;2209;48.982;8.406;2022-08-24T02:34:43;25.30;61.30
4390;DHT22;2209;48.982;8.406;2022-08-24T02:37:06;25.30;61.20
4390;DHT22;2209;48.982;8.406;2022-08-24T02:39:28;25.30;61.40
4390;DHT22;2209;48.982;8.406;2022-08-24T02:41:51;25.30;61.90
4390;DHT22;2209;48.982;8.406;2022-08-24T02:44:13;25.30;62.50
4390;DHT22;2209;48.982;8.406;2022-08-24T02:46:36;25.20;62.90
4390;DHT22;2209;48.982;8.406;2022-08-24T02:49:00;25.20;63.10
4390;DHT22;2209;48.982;8.406;2022-08-24T02:51:26;25.10;63.30
4390;DHT22;2209;48.982;8.406;2022-08-24T02:53:50;25.10;63.40
4390;DHT22;2209;48.982;8.406;2022-08-24T02:56:14;25.10;63.40
4390;DHT22;2209;48.982;8.406;2022-08-24T02:58:37;25.10;63.40
4390;DHT22;2209;48.982;8.406;2022-08-24T03:00:59;25.00;63.30
4390;DHT22;2209;48.982;8.406;2022-08-24T03:03:21;25.00;63.30
4390;DHT22;2209;48.982;8.406;2022-08-24T03:05:45;24.90;63.30
4390;DHT22;2209;48.982;8.406;2022-08-24T03:08:07;24.90;63.30
4390;DHT22;2209;48.982;8.406;2022-08-24T03:10:29;24.90;63.40
4390;DHT22;2209;48.982;8.406;2022-08-24T03:12:52;24.80;63.30
4390;DHT22;2209;48.982;8.406;2022-08-24T03:15:15;24.80;63.40
4390;DHT22;2209;48.982;8.406;2022-08-24T03:17:37;24.80;63.60
4390;DHT22;2209;48.982;8.406;2022-08-24T03:20:00;24.80;63.80
4390;DHT22;2209;48.982;8.406;2022-08-24T03:22:24;24.80;64.10
4390;DHT22;2209;48.982;8.406;2022-08-24T03:24:46;24.70;64.10
4390;DHT22;2209;48.982;8.406;2022-08-24T03:27:09;24.70;64.30
4390;DHT22;2209;48.982;8.406;2022-08-24T03:29:31;24.70;64.50
4390;DHT22;2209;48.982;8.406;2022-08-24T03:31:55;24.60;64.50
4390;DHT22;2209;48.982;8.406;2022-08-24T03:34:18;24.60;64.60
4390;DHT22;2209;48.982;8.406;2022-08-24T03:36:41;24.60;64.70
4390;DHT22;2209;48.982;8.406;2022-08-24T03:39:07;24.60;64.70
4390;DHT22;2209;48.982;8.406;2022-08-24T03:41:29;24.50;64.50
4390;DHT22;2209;48.982;8.406;2022-08-24T03:43:52;24.50;64.40
4390;DHT22;2209;48.982;8.406;2022-08-24T03:46:19;24.50;64.40
4390;DHT22;2209;48.982;8.406;2022-08-24T03:48:42;24.50;64.40
4390;DHT22;2209;48.982;8.406;2022-08-24T03:51:06;24.40;64.40
4390;DHT22;2209;48.982;8.406;2022-08-24T03:53:28;24.40;64.40
4390;DHT22;2209;48.982;8.406;2022-08-24T03:55:52;24.40;64.50
4390;DHT22;2209;48.982;8.406;2022-08-24T03:58:14;24.40;64.70
4390;DHT22;2209;48.982;8.406;2022-08-24T04:00:38;24.30;64.70
4390;DHT22;2209;48.982;8.406;2022-08-24T04:03:02;24.30;64.90
4390;DHT22;2209;48.982;8.406;2022-08-24T04:05:26;24.30;65.20
4390;DHT22;2209;48.982;8.406;2022-08-24T04:07:49;24.20;65.40
4390;DHT22;2209;48.982;8.406;2022-08-24T04:10:12;24.20;65.60
4390;DHT22;2209;48.982;8.406;2022-08-24T04:12:39;24.20;65.70
4390;DHT22;2209;48.982;8.406;2022-08-24T04:15:01;24.20;65.80
4390;DHT22;2209;48.982;8.406;2022-08-24T04:17:24;24.20;66.00
4390;DHT22;2209;48.982;8.406;2022-08-24T04:19:47;24.20;66.10
4390;DHT22;2209;48.982;8.406;2022-08-24T04:22:18;24.10;66.00
4390;DHT22;2209;48.982;8.406;2022-08-24T04:24:40;24.10;66.00
4390;DHT22;2209;48.982;8.406;2022-08-24T04:27:02;24.10;66.00
4390;DHT22;2209;48.982;8.406;2022-08-24T04:29:26;24.10;66.00
4390;DHT22;2209;48.982;8.406;2022-08-24T04:31:48;24.10;66.10
4390;DHT22;2209;48.982;8.406;2022-08-24T04:34:11;24.10;66.10
4390;DHT22;2209;48.982;8.406;2022-08-24T04:36:35;24.10;66.30
4390;DHT22;2209;48.982;8.406;2022-08-24T04:38:57;24.00;66.20
4390;DHT22;2209;48.982;8.406;2022-08-24T04:41:19;24.00;66.30
4390;DHT22;2209;48.982;8.406;2022-08-24T04:43:41;24.00;66.40
4390;DHT22;2209;48.982;8.406;2022-08-24T04:46:06;23.90;66.30
4390;DHT22;2209;48.982;8.406;2022-08-24T04:48:29;23.90;66.40
4390;DHT22;2209;48.982;8.406;2022-08-24T04:50:52;23.90;66.60
4390;DHT22;2209;48.982;8.406;2022-08-24T04:53:15;23.90;66.70
4390;DHT22;2209;48.982;8.406;2022-08-24T04:55:42;23.90;66.80
4390;DHT22;2209;48.982;8.406;2022-08-24T04:58:04;23.90;67.00
4390;DHT22;2209;48.982;8.406;2022-08-24T05:00:26;23.80;66.90
4390;DHT22;2209;48.982;8.406;2022-08-24T05:02:50;23.80;67.00
4390;DHT22;2209;48.982;8.406;2022-08-24T05:05:13;23.70;67.00
4390;DHT22;2209;48.982;8.406;2022-08-24T05:07:35;23.60;66.70
4390;DHT22;2209;48.982;8.406;2022-08-24T05:09:58;23.60;67.00
4390;DHT22;2209;48.982;8.406;2022-08-24T05:12:20;23.60;67.50
4390;DHT22;2209;48.982;8.406;2022-08-24T05:14:42;23.60;67.80
4390;DHT22;2209;48.982;8.406;2022-08-24T05:17:04;23.60;68.10
4390;DHT22;2209;48.982;8.406;2022-08-24T05:19:28;23.70;68.30
4390;DHT22;2209;48.982;8.406;2022-08-24T05:21:50;23.70;68.40
4390;DHT22;2209;48.982;8.406;2022-08-24T05:24:13;23.70;68.40
4390;DHT22;2209;48.982;8.406;2022-08-24T05:26:41;23.70;68.60
4390;DHT22;2209;48.982;8.406;2022-08-24T05:29:03;23.70;68.70
4390;DHT22;2209;48.982;8.406;2022-08-24T05:31:27;23.70;68.70
4390;DHT22;2209;48.982;8.406;2022-08-24T05:33:50;23.70;68.80
4390;DHT22;2209;48.982;8.406;2022-08-24T05:36:18;23.70;68.90
4390;DHT22;2209;48.982;8.406;2022-08-24T05:38:41;23.70;68.90
4390;DHT22;2209;48.982;8.406;2022-08-24T05:41:03;23.70;69.00
4390;DHT22;2209;48.982;8.406;2022-08-24T05:43:29;23.70;69.20
4390;DHT22;2209;48.982;8.406;2022-08-24T05:45:51;23.70;69.20
4390;DHT22;2209;48.982;8.406;2022-08-24T05:48:13;23.60;69.10
4390;DHT22;2209;48.982;8.406;2022-08-24T05:50:36;23.60;69.30
4390;DHT22;2209;48.982;8.406;2022-08-24T05:52:59;23.60;69.50
4390;DHT22;2209;48.982;8.406;2022-08-24T05:55:21;23.60;69.60
4390;DHT22;2209;48.982;8.406;2022-08-24T05:57:44;23.60;69.80
4390;DHT22;2209;48.982;8.406;2022-08-24T06:00:07;23.60;70.00
4390;DHT22;2209;48.982;8.406;2022-08-24T06:02:30;23.50;70.10
4390;DHT22;2209;48.982;8.406;2022-08-24T06:04:52;23.50;70.10
4390;DHT22;2209;48.982;8.406;2022-08-24T06:07:15;23.50;70.30
4390;DHT22;2209;48.982;8.406;2022-08-24T06:09:40;23.50;70.40
4390;DHT22;2209;48.982;8.406;2022-08-24T06:12:03;23.50;70.60
4390;DHT22;2209;48.982;8.406;2022-08-24T06:14:25;23.50;70.70
4390;DHT22;2209;48.982;8.406;2022-08-24T06:16:47;23.50;70.80
4390;DHT22;2209;48.982;8.406;2022-08-24T06:19:12;23.50;70.90
4390;DHT22;2209;48.982;8.406;2022-08-24T06:21:35;23.50;70.80
4390;DHT22;2209;48.982;8.406;2022-08-24T06:23:58;23.50;70.60
4390;DHT22;2209;48.982;8.406;2022-08-24T06:26:22;23.50;70.70
4390;DHT22;2209;48.982;8.406;2022-08-24T06:29:02;23.50;71.00
4390;DHT22;2209;48.982;8.406;2022-08-24T06:31:24;23.50;71.20
4390;DHT22;2209;48.982;8.406;2022-08-24T06:33:47;23.50;71.20
4390;DHT22;2209;48.982;8.406;2022-08-24T06:36:09;23.50;71.30
4390;DHT22;2209;48.982;8.406;2022-08-24T06:38:31;23.50;71.50
4390;DHT22;2209;48.982;8.406;2022-08-24T06:40:53;23.50;71.60
4390;DHT22;2209;48.982;8.406;2022-08-24T06:43:17;23.60;71.70
4390;DHT22;2209;48.982;8.406;2022-08-24T06:45:40;23.50;71.70
4390;DHT22;2209;48.982;8.406;2022-08-24T06:48:02;23.60;71.70
4390;DHT22;2209;48.982;8.406;2022-08-24T06:50:25;23.60;71.60
4390;DHT22;2209;48.982;8.406;2022-08-24T06:52:47;23.60;71.50
4390;DHT22;2209;48.982;8.406;2022-08-24T06:55:09;23.50;71.30
4390;DHT22;2209;48.982;8.406;2022-08-24T06:57:31;23.50;72.20
4390;DHT22;2209;48.982;8.406;2022-08-24T06:59:55;23.60;71.60
4390;DHT22;2209;48.982;8.406;2022-08-24T07:02:17;23.50;71.60
4390;DHT22;2209;48.982;8.406;2022-08-24T07:04:39;23.60;71.70
4390;DHT22;2209;48.982;8.406;2022-08-24T07:07:02;23.60;71.80
4390;DHT22;2209;48.982;8.406;2022-08-24T07:09:24;23.60;71.80
4390;DHT22;2209;48.982;8.406;2022-08-24T07:11:47;23.60;71.80
4390;DHT22;2209;48.982;8.406;2022-08-24T07:14:09;23.60;71.90
4390;DHT22;2209;48.982;8.406;2022-08-24T07:16:33;23.60;72.00
4390;DHT22;2209;48.982;8.406;2022-08-24T07:18:56;23.60;72.10
4390;DHT22;2209;48.982;8.406;2022-08-24T07:21:18;23.60;72.10
4390;DHT22;2209;48.982;8.406;2022-08-24T07:23:41;23.60;72.20
4390;DHT22;2209;48.982;8.406;2022-08-24T07:26:08;23.60;72.40
4390;DHT22;2209;48.982;8.406;2022-08-24T07:28:33;23.60;71.80
4390;DHT22;2209;48.982;8.406;2022-08-24T07:30:55;23.60;71.50
4390;DHT22;2209;48.982;8.406;2022-08-24T07:33:19;23.60;71.20
4390;DHT22;2209;48.982;8.406;2022-08-24T07:35:41;23.50;71.10
4390;DHT22;2209;48.982;8.406;2022-08-24T07:38:04;23.50;71.40
4390;DHT22;2209;48.982;8.406;2022-08-24T07:40:28;23.50;71.70
4390;DHT22;2209;48.982;8.406;2022-08-24T07:42:52;23.60;71.80
4390;DHT22;2209;48.982;8.406;2022-08-24T07:45:14;23.50;72.00
4390;DHT22;2209;48.982;8.406;2022-08-24T07:47:37;23.60;72.30
4390;DHT22;2209;48.982;8.406;2022-08-24T07:50:00;23.60;72.40
4390;DHT22;2209;48.982;8.406;2022-08-24T07:52:22;23.60;72.50
4390;DHT22;2209;48.982;8.406;2022-08-24T07:54:44;23.60;72.50
4390;DHT22;2209;48.982;8.406;2022-08-24T07:57:07;23.60;72.20
4390;DHT22;2209;48.982;8.406;2022-08-24T07:59:29;23.60;72.20
4390;DHT22;2209;48.982;8.406;2022-08-24T08:01:51;23.60;71.90
4390;DHT22;2209;48.982;8.406;2022-08-24T08:04:13;23.60;71.10
4390;DHT22;2209;48.982;8.406;2022-08-24T08:06:37;23.60;71.40
4390;DHT22;2209;48.982;8.406;2022-08-24T08:08:59;23.60;71.80
4390;DHT22;2209;48.982;8.406;2022-08-24T08:11:22;23.70;72.00
4390;DHT22;2209;48.982;8.406;2022-08-24T08:13:45;23.70;72.00
4390;DHT22;2209;48.982;8.406;2022-08-24T08:16:07;23.70;71.80
4390;DHT22;2209;48.982;8.406;2022-08-24T08:18:30;23.70;72.10
4390;DHT22;2209;48.982;8.406;2022-08-24T08:20:53;23.70;72.00
4390;DHT22;2209;48.982;8.406;2022-08-24T08:23:17;23.70;72.10
4390;DHT22;2209;48.982;8.406;2022-08-24T08:25:57;23.70;72.30
4390;DHT22;2209;48.982;8.406;2022-08-24T08:28:21;23.80;72.80
4390;DHT22;2209;48.982;8.406;2022-08-24T08:30:45;23.80;72.80
4390;DHT22;2209;48.982;8.406;2022-08-24T08:33:07;23.80;72.50
4390;DHT22;2209;48.982;8.406;2022-08-24T08:35:29;23.80;72.50
4390;DHT22;2209;48.982;8.406;2022-08-24T08:37:53;23.80;72.50
4390;DHT22;2209;48.982;8.406;2022-08-24T08:40:30;23.80;72.50
4390;DHT22;2209;48.982;8.406;2022-08-24T08:43:05;23.80;72.50
4390;DHT22;2209;48.982;8.406;2022-08-24T08:45:34;23.80;72.50
4390;DHT22;2209;48.982;8.406;2022-08-24T08:48:29;23.80;72.50
4390;DHT22;2209;48.982;8.406;2022-08-24T08:54:10;23.80;72.20
4390;DHT22;2209;48.982;8.406;2022-08-24T08:56:39;23.80;72.00
4390;DHT22;2209;48.982;8.406;2022-08-24T08:59:09;23.80;71.90
4390;DHT22;2209;48.982;8.406;2022-08-24T09:01:39;23.80;71.60
4390;DHT22;2209;48.982;8.406;2022-08-24T09:06:59;23.90;71.80
4390;DHT22;2209;48.982;8.406;2022-08-24T09:12:16;24.00;71.90
4390;DHT22;2209;48.982;8.406;2022-08-24T09:15:13;24.00;71.90
4390;DHT22;2209;48.982;8.406;2022-08-24T09:17:56;24.00;72.10
4390;DHT22;2209;48.982;8.406;2022-08-24T09:20:41;24.00;72.10
4390;DHT22;2209;48.982;8.406;2022-08-24T09:23:10;24.00;72.40
4390;DHT22;2209;48.982;8.406;2022-08-24T09:25:40;24.10;72.50
4390;DHT22;2209;48.982;8.406;2022-08-24T09:28:15;24.10;71.90
4390;DHT22;2209;48.982;8.406;2022-08-24T09:31:16;24.30;72.80
4390;DHT22;2209;48.982;8.406;2022-08-24T09:33:43;24.30;72.30
4390;DHT22;2209;48.982;8.406;2022-08-24T09:36:09;24.30;73.00
4390;DHT22;2209;48.982;8.406;2022-08-24T09:38:58;24.50;72.20
4390;DHT22;2209;48.982;8.406;2022-08-24T09:42:02;24.50;71.60
4390;DHT22;2209;48.982;8.406;2022-08-24T09:44:59;24.70;70.00
4390;DHT22;2209;48.982;8.406;2022-08-24T09:50:44;24.70;69.50
4390;DHT22;2209;48.982;8.406;2022-08-24T09:53:42;24.60;69.00
4390;DHT22;2209;48.982;8.406;2022-08-24T09:56:23;24.60;68.60
4390;DHT22;2209;48.982;8.406;2022-08-24T09:58:59;24.60;67.60
4390;DHT22;2209;48.982;8.406;2022-08-24T10:01:30;24.60;67.40
4390;DHT22;2209;48.982;8.406;2022-08-24T10:04:09;24.60;67.50
4390;DHT22;2209;48.982;8.406;2022-08-24T10:06:38;24.60;67.40
4390;DHT22;2209;48.982;8.406;2022-08-24T10:12:04;24.60;66.20
4390;DHT22;2209;48.982;8.406;2022-08-24T10:14:49;24.60;66.00
4390;DHT22;2209;48.982;8.406;2022-08-24T10:17:21;24.60;66.20
4390;DHT22;2209;48.982;8.406;2022-08-24T10:20:04;24.60;65.80
4390;DHT22;2209;48.982;8.406;2022-08-24T10:22:38;24.60;65.00
4390;DHT22;2209;48.982;8.406;2022-08-24T10:25:11;24.70;64.70
4390;DHT22;2209;48.982;8.406;2022-08-24T10:27:48;24.70;64.70
4390;DHT22;2209;48.982;8.406;2022-08-24T10:30:34;24.60;64.20
4390;DHT22;2209;48.982;8.406;2022-08-24T10:33:08;24.70;64.30
4390;DHT22;2209;48.982;8.406;2022-08-24T10:35:37;24.70;64.30
4390;DHT22;2209;48.982;8.406;2022-08-24T10:38:21;24.70;64.50
4390;DHT22;2209;48.982;8.406;2022-08-24T10:44:20;24.70;64.20
4390;DHT22;2209;48.982;8.406;2022-08-24T10:46:49;24.70;63.90
4390;DHT22;2209;48.982;8.406;2022-08-24T10:49:34;24.80;61.70
4390;DHT22;2209;48.982;8.406;2022-08-24T10:52:42;24.90;60.40
4390;DHT22;2209;48.982;8.406;2022-08-24T10:55:13;24.90;61.00
4390;DHT22;2209;48.982;8.406;2022-08-24T10:57:40;24.90;61.00
4390;DHT22;2209;48.982;8.406;2022-08-24T11:00:07;24.90;60.60
4390;DHT22;2209;48.982;8.406;2022-08-24T11:02:33;24.90;60.10
4390;DHT22;2209;48.982;8.406;2022-08-24T11:04:58;25.00;59.90
4390;DHT22;2209;48.982;8.406;2022-08-24T11:07:21;25.00;59.90
4390;DHT22;2209;48.982;8.406;2022-08-24T11:09:46;25.00;59.70
4390;DHT22;2209;48.982;8.406;2022-08-24T11:12:19;25.00;59.20
4390;DHT22;2209;48.982;8.406;2022-08-24T11:14:46;25.10;59.50
4390;DHT22;2209;48.982;8.406;2022-08-24T11:17:14;25.20;59.70
4390;DHT22;2209;48.982;8.406;2022-08-24T11:19:36;25.20;59.60
4390;DHT22;2209;48.982;8.406;2022-08-24T11:22:03;25.20;59.40
4390;DHT22;2209;48.982;8.406;2022-08-24T11:24:29;25.40;58.60
4390;DHT22;2209;48.982;8.406;2022-08-24T11:27:02;25.50;59.20
4390;DHT22;2209;48.982;8.406;2022-08-24T11:29:29;25.50;59.40
4390;DHT22;2209;48.982;8.406;2022-08-24T11:31:54;25.50;59.30
4390;DHT22;2209;48.982;8.406;2022-08-24T11:34:19;25.50;58.70
4390;DHT22;2209;48.982;8.406;2022-08-24T11:36:51;25.50;58.80
4390;DHT22;2209;48.982;8.406;2022-08-24T11:39:19;25.60;58.50
4390;DHT22;2209;48.982;8.406;2022-08-24T11:41:50;25.60;58.30
4390;DHT22;2209;48.982;8.406;2022-08-24T11:44:23;25.60;58.40
4390;DHT22;2209;48.982;8.406;2022-08-24T11:46:52;25.60;58.30
4390;DHT22;2209;48.982;8.406;2022-08-24T11:49:22;25.70;58.50
4390;DHT22;2209;48.982;8.406;2022-08-24T11:51:50;25.70;58.80
4390;DHT22;2209;48.982;8.406;2022-08-24T11:54:21;25.80;58.60
4390;DHT22;2209;48.982;8.406;2022-08-24T11:56:55;25.80;58.50
4390;DHT22;2209;48.982;8.406;2022-08-24T11:59:26;25.90;58.50
4390;DHT22;2209;48.982;8.406;2022-08-24T12:01:57;25.90;58.30
4390;DHT22;2209;48.982;8.406;2022-08-24T12:04:35;25.90;58.50
4390;DHT22;2209;48.982;8.406;2022-08-24T12:07:10;25.90;58.80
4390;DHT22;2209;48.982;8.406;2022-08-24T12:09:47;25.90;58.70
4390;DHT22;2209;48.982;8.406;2022-08-24T12:12:16;25.90;59.40
4390;DHT22;2209;48.982;8.406;2022-08-24T12:14:42;26.00;59.20
4390;DHT22;2209;48.982;8.406;2022-08-24T12:17:12;26.00;59.20
4390;DHT22;2209;48.982;8.406;2022-08-24T12:19:46;26.10;59.50
4390;DHT22;2209;48.982;8.406;2022-08-24T12:22:09;26.10;59.50
4390;DHT22;2209;48.982;8.406;2022-08-24T12:24:40;26.10;59.40
4390;DHT22;2209;48.982;8.406;2022-08-24T12:27:08;26.10;59.00
4390;DHT22;2209;48.982;8.406;2022-08-24T12:29:36;26.20;58.90
4390;DHT22;2209;48.982;8.406;2022-08-24T12:32:02;26.20;59.20
4390;DHT22;2209;48.982;8.406;2022-08-24T12:34:31;26.20;59.50
4390;DHT22;2209;48.982;8.406;2022-08-24T12:37:00;26.30;59.10
4390;DHT22;2209;48.982;8.406;2022-08-24T12:39:27;26.40;58.90
4390;DHT22;2209;48.982;8.406;2022-08-24T12:41:59;26.40;58.50
4390;DHT22;2209;48.982;8.406;2022-08-24T12:44:37;26.40;58.60
4390;DHT22;2209;48.982;8.406;2022-08-24T12:47:01;26.50;58.30
4390;DHT22;2209;48.982;8.406;2022-08-24T12:49:26;26.50;58.30
4390;DHT22;2209;48.982;8.406;2022-08-24T12:57:44;26.60;57.90
4390;DHT22;2209;48.982;8.406;2022-08-24T13:00:23;26.70;58.00
4390;DHT22;2209;48.982;8.406;2022-08-24T13:02:55;26.70;57.60
4390;DHT22;2209;48.982;8.406;2022-08-24T13:05:18;26.80;57.80
4390;DHT22;2209;48.982;8.406;2022-08-24T13:07:43;26.80;57.50
4390;DHT22;2209;48.982;8.406;2022-08-24T13:10:10;26.90;57.50
4390;DHT22;2209;48.982;8.406;2022-08-24T13:15:53;27.00;57.10
4390;DHT22;2209;48.982;8.406;2022-08-24T13:18:50;27.00;57.00
4390;DHT22;2209;48.982;8.406;2022-08-24T13:21:35;27.00;57.10
4390;DHT22;2209;48.982;8.406;2022-08-24T13:27:59;27.10;56.60
4390;DHT22;2209;48.982;8.406;2022-08-24T13:30:34;27.20;56.00
4390;DHT22;2209;48.982;8.406;2022-08-24T13:33:03;27.20;55.60
4390;DHT22;2209;48.982;8.406;2022-08-24T13:35:54;27.30;55.80
4390;DHT22;2209;48.982;8.406;2022-08-24T13:38:42;27.40;55.90
4390;DHT22;2209;48.982;8.406;2022-08-24T13:41:14;27.40;56.00
4390;DHT22;2209;48.982;8.406;2022-08-24T13:43:45;27.40;56.10
4390;DHT22;2209;48.982;8.406;2022-08-24T13:46:18;27.50;55.80
4390;DHT22;2209;48.982;8.406;2022-08-24T13:48:47;27.60;55.10
4390;DHT22;2209;48.982;8.406;2022-08-24T13:51:32;27.60;55.00
4390;DHT22;2209;48.982;8.406;2022-08-24T13:54:20;27.60;54.50
4390;DHT22;2209;48.982;8.406;2022-08-24T13:57:02;27.70;54.30
4390;DHT22;2209;48.982;8.406;2022-08-24T13:59:51;27.80;54.30
4390;DHT22;2209;48.982;8.406;2022-08-24T14:02:25;27.80;54.00
4390;DHT22;2209;48.982;8.406;2022-08-24T14:04:55;27.80;54.00
4390;DHT22;2209;48.982;8.406;2022-08-24T14:07:21;27.90;54.00
4390;DHT22;2209;48.982;8.406;2022-08-24T14:09:57;27.90;54.40
4390;DHT22;2209;48.982;8.406;2022-08-24T14:12:39;27.90;54.80
4390;DHT22;2209;48.982;8.406;2022-08-24T14:15:13;28.00;54.50
4390;DHT22;2209;48.982;8.406;2022-08-24T14:17:42;28.10;54.40
4390;DHT22;2209;48.982;8.406;2022-08-24T14:23:12;28.30;54.00
4390;DHT22;2209;48.982;8.406;2022-08-24T14:25:39;28.30;53.50
4390;DHT22;2209;48.982;8.406;2022-08-24T14:28:23;28.30;54.10
4390;DHT22;2209;48.982;8.406;2022-08-24T14:30:46;28.40;53.70
4390;DHT22;2209;48.982;8.406;2022-08-24T14:33:16;28.40;53.60
4390;DHT22;2209;48.982;8.406;2022-08-24T14:35:43;28.50;53.70
4390;DHT22;2209;48.982;8.406;2022-08-24T14:38:25;28.50;53.80
4390;DHT22;2209;48.982;8.406;2022-08-24T14:41:02;28.50;53.80
4390;DHT22;2209;48.982;8.406;2022-08-24T14:43:33;28.50;54.00
4390;DHT22;2209;48.982;8.406;2022-08-24T14:46:02;28.50;54.30
4390;DHT22;2209;48.982;8.406;2022-08-24T14:48:38;28.60;54.30
4390;DHT22;2209;48.982;8.406;2022-08-24T14:51:09;28.60;54.00
4390;DHT22;2209;48.982;8.406;2022-08-24T14:53:59;28.60;53.50
4390;DHT22;2209;48.982;8.406;2022-08-24T14:56:46;28.70;52.30
4390;DHT22;2209;48.982;8.406;2022-08-24T14:59:14;28.80;52.40
4390;DHT22;2209;48.982;8.406;2022-08-24T15:01:40;28.80;52.70
4390;DHT22;2209;48.982;8.406;2022-08-24T15:06:55;28.80;53.30
4390;DHT22;2209;48.982;8.406;2022-08-24T15:09:23;28.80;53.50
4390;DHT22;2209;48.982;8.406;2022-08-24T15:11:47;28.80;53.60
4390;DHT22;2209;48.982;8.406;2022-08-24T15:14:19;28.90;53.60
4390;DHT22;2209;48.982;8.406;2022-08-24T15:16:46;28.90;53.60
4390;DHT22;2209;48.982;8.406;2022-08-24T15:19:15;28.90;53.60
4390;DHT22;2209;48.982;8.406;2022-08-24T15:21:46;29.00;53.30
4390;DHT22;2209;48.982;8.406;2022-08-24T15:24:16;29.00;53.20
4390;DHT22;2209;48.982;8.406;2022-08-24T15:26:49;29.00;53.30
4390;DHT22;2209;48.982;8.406;2022-08-24T15:29:16;29.10;53.40
4390;DHT22;2209;48.982;8.406;2022-08-24T15:31:40;29.10;52.70
4390;DHT22;2209;48.982;8.406;2022-08-24T15:34:03;29.10;52.70
4390;DHT22;2209;48.982;8.406;2022-08-24T15:36:26;29.10;52.70
4390;DHT22;2209;48.982;8.406;2022-08-24T15:38:50;29.20;52.00
4390;DHT22;2209;48.982;8.406;2022-08-24T15:41:16;29.20;52.20
4390;DHT22;2209;48.982;8.406;2022-08-24T15:43:41;29.20;51.50
4390;DHT22;2209;48.982;8.406;2022-08-24T15:46:05;29.30;51.20
4390;DHT22;2209;48.982;8.406;2022-08-24T15:48:28;29.30;51.00
4390;DHT22;2209;48.982;8.406;2022-08-24T15:50:53;29.30;50.90
4390;DHT22;2209;48.982;8.406;2022-08-24T15:53:30;29.40;50.60
4390;DHT22;2209;48.982;8.406;2022-08-24T15:55:53;29.40;50.40
4390;DHT22;2209;48.982;8.406;2022-08-24T15:58:31;29.40;50.40
4390;DHT22;2209;48.982;8.406;2022-08-24T16:00:59;29.40;50.50
4390;DHT22;2209;48.982;8.406;2022-08-24T16:03:46;29.40;50.10
4390;DHT22;2209;48.982;8.406;2022-08-24T16:06:18;29.40;49.80
4390;DHT22;2209;48.982;8.406;2022-08-24T16:08:55;29.40;49.70
4390;DHT22;2209;48.982;8.406;2022-08-24T16:11:27;29.40;49.70
4390;DHT22;2209;48.982;8.406;2022-08-24T16:13:51;29.40;49.90
4390;DHT22;2209;48.982;8.406;2022-08-24T16:16:14;29.40;49.90
4390;DHT22;2209;48.982;8.406;2022-08-24T16:18:45;29.40;49.90
4390;DHT22;2209;48.982;8.406;2022-08-24T16:21:13;29.50;49.90
4390;DHT22;2209;48.982;8.406;2022-08-24T16:23:36;29.40;49.70
4390;DHT22;2209;48.982;8.406;2022-08-24T16:26:17;29.50;49.20
4390;DHT22;2209;48.982;8.406;2022-08-24T16:28:39;29.40;49.20
4390;DHT22;2209;48.982;8.406;2022-08-24T16:31:05;29.40;49.50
4390;DHT22;2209;48.982;8.406;2022-08-24T16:33:48;29.40;49.80
4390;DHT22;2209;48.982;8.406;2022-08-24T16:36:12;29.40;50.00
4390;DHT22;2209;48.982;8.406;2022-08-24T16:38:36;29.40;50.00
4390;DHT22;2209;48.982;8.406;2022-08-24T16:40:59;29.50;50.10